Time;durP1;ratioP1;P1;durP2;ratioP2;P2;SDS_P1;SDS_P2;PMS_P1;PMS_P2;Temp;Humidity;BMP_temperature;BMP_pressure;BME280_temperature;BME280_humidity;BME280_pressure;Samples;Min_cycle;Max_cycle;Signal;HPM_P1;HPM_P2
2022/11/11 00:01:58;;;;;;;;;5.25;4.75;;;;;;;;5064840;28;62088;-77
2022/11/11 00:04:23;;;;;;;;;5.50;5.50;;;;;;;;5063823;28;61860;-77
2022/11/11 00:06:48;;;;;;;;;8.50;5.00;;;;;;;;5064124;28;61824;-77
2022/11/11 00:09:13;;;;;;;;;7.75;5.00;;;;;;;;5082826;28;62199;-77
2022/11/11 00:11:39;;;;;;;;;9.00;8.00;;;;;;;;5064153;28;61670;-77
2022/11/11 00:14:04;;;;;;;;;10.50;7.25;;;;;;;;5082013;27;61918;-77
2022/11/11 00:25:04;;;;;;;;;11.00;6.50;;;;;;;;5082420;28;62136;-77
2022/11/11 00:27:26;;;;;;;;;8.00;4.25;;;;;;;;5082233;27;61760;-77
2022/11/11 00:29:52;;;;;;;;;9.75;7.50;;;;;;;;5064132;28;62556;-77
2022/11/11 00:32:23;;;;;;;;;7.50;5.25;;;;;;;;5082695;27;61756;-77
2022/11/11 00:37:37;;;;;;;;;13.25;7.00;;;;;;;;5082489;28;61792;-77
2022/11/11 00:40:02;;;;;;;;;10.50;7.75;;;;;;;;5063574;28;61756;-77
2022/11/11 00:42:28;;;;;;;;;9.00;6.25;;;;;;;;5082317;28;61795;-77
2022/11/11 00:44:53;;;;;;;;;4.75;4.75;;;;;;;;5081774;28;61884;-77
2022/11/11 00:52:49;;;;;;;;;7.00;6.25;;;;;;;;5082314;28;61807;-77
2022/11/11 00:55:15;;;;;;;;;4.25;4.25;;;;;;;;5081129;28;61968;-77
2022/11/11 00:57:40;;;;;;;;;6.00;6.00;;;;;;;;5081953;28;62321;-77
2022/11/11 01:00:05;;;;;;;;;7.75;5.25;;;;;;;;5081694;28;62041;-77
2022/11/11 01:02:31;;;;;;;;;6.50;6.25;;;;;;;;5082587;28;62149;-77
2022/11/11 01:04:56;;;;;;;;;6.00;6.00;;;;;;;;5081263;28;61809;-77
2022/11/11 01:07:22;;;;;;;;;17.75;7.50;;;;;;;;5081875;28;61935;-77
2022/11/11 01:09:47;;;;;;;;;5.00;4.00;;;;;;;;5081638;28;61951;-77
2022/11/11 01:12:12;;;;;;;;;11.50;5.00;;;;;;;;5082184;28;62148;-77
2022/11/11 01:14:38;;;;;;;;;10.25;9.00;;;;;;;;5062367;28;62718;-77
2022/11/11 01:17:05;;;;;;;;;7.00;6.00;;;;;;;;5063337;28;62120;-77
2022/11/11 01:19:30;;;;;;;;;3.50;3.50;;;;;;;;5081844;28;61804;-77
2022/11/11 01:21:55;;;;;;;;;5.25;3.00;;;;;;;;5063770;28;61771;-77
2022/11/11 01:24:21;;;;;;;;;7.00;5.25;;;;;;;;5080964;28;61868;-77
2022/11/11 01:26:46;;;;;;;;;6.25;5.25;;;;;;;;5063460;28;61769;-77
2022/11/11 01:29:11;;;;;;;;;6.25;5.50;;;;;;;;5081378;28;61720;-77
2022/11/11 01:31:36;;;;;;;;;8.75;4.25;;;;;;;;5063601;28;62083;-77
2022/11/11 01:34:02;;;;;;;;;7.00;4.25;;;;;;;;5065196;28;62993;-77
2022/11/11 01:36:27;;;;;;;;;10.00;6.75;;;;;;;;5085086;27;61731;-77
2022/11/11 01:38:54;;;;;;;;;7.00;5.00;;;;;;;;5066492;28;61894;-77
2022/11/11 01:41:33;;;;;;;;;9.50;7.00;;;;;;;;5085080;27;61887;-77
2022/11/11 01:44:16;;;;;;;;;8.00;4.00;;;;;;;;5065836;27;62046;-77
2022/11/11 01:47:02;;;;;;;;;6.75;6.75;;;;;;;;5084918;28;61810;-77
2022/11/11 01:49:28;;;;;;;;;6.00;6.00;;;;;;;;5066433;28;61860;-77
2022/11/11 01:52:02;;;;;;;;;9.00;6.00;;;;;;;;5084489;28;61866;-77
2022/11/11 01:54:34;;;;;;;;;8.00;5.50;;;;;;;;5068153;27;63690;-77
2022/11/11 01:57:18;;;;;;;;;11.25;5.75;;;;;;;;5086640;27;61721;-78
2022/11/11 01:59:45;;;;;;;;;8.75;7.00;;;;;;;;5104851;27;62008;-77
2022/11/11 02:02:21;;;;;;;;;8.50;8.00;;;;;;;;5105370;27;62048;-77
2022/11/11 02:07:33;;;;;;;;;12.25;8.00;;;;;;;;5104469;27;61747;-77
2022/11/11 02:09:58;;;;;;;;;9.25;6.50;;;;;;;;5105167;27;61997;-77
2022/11/11 02:15:07;;;;;;;;;8.00;5.00;;;;;;;;5104144;27;62419;-76
2022/11/11 02:17:33;;;;;;;;;10.75;8.25;;;;;;;;5104970;27;61855;-77
2022/11/11 02:20:00;;;;;;;;;6.25;6.25;;;;;;;;5085901;27;62337;-77
2022/11/11 02:22:28;;;;;;;;;10.25;9.00;;;;;;;;5086055;27;61925;-78
2022/11/11 02:24:55;;;;;;;;;7.75;6.00;;;;;;;;5104402;27;61743;-77
2022/11/11 02:27:21;;;;;;;;;8.00;4.25;;;;;;;;5104382;27;62202;-77
2022/11/11 02:29:48;;;;;;;;;8.75;5.50;;;;;;;;5086239;27;61985;-77
2022/11/11 02:32:13;;;;;;;;;7.75;6.50;;;;;;;;5104995;27;61737;-77
2022/11/11 02:34:38;;;;;;;;;6.50;6.50;;;;;;;;5104187;27;62648;-77
2022/11/11 02:37:05;;;;;;;;;6.00;4.00;;;;;;;;5103943;27;62055;-77
2022/11/11 02:39:33;;;;;;;;;6.00;5.00;;;;;;;;5086317;27;61974;-77
2022/11/11 02:41:58;;;;;;;;;4.25;2.75;;;;;;;;5104667;27;61913;-77
2022/11/11 02:44:24;;;;;;;;;7.00;4.75;;;;;;;;5102735;27;62805;-77
2022/11/11 02:46:50;;;;;;;;;8.50;6.00;;;;;;;;5104367;27;61853;-77
2022/11/11 02:49:15;;;;;;;;;8.50;6.25;;;;;;;;5104054;27;62013;-77
2022/11/11 02:51:40;;;;;;;;;5.25;4.00;;;;;;;;5085824;27;61774;-77
2022/11/11 02:54:05;;;;;;;;;9.75;5.00;;;;;;;;5103813;27;62009;-78
2022/11/11 02:59:15;;;;;;;;;11.50;7.75;;;;;;;;5083349;28;62006;-77
2022/11/11 03:01:40;;;;;;;;;8.00;6.00;;;;;;;;5084148;27;61963;-77
2022/11/11 03:04:05;;;;;;;;;4.00;4.00;;;;;;;;5082828;27;61878;-77
2022/11/11 03:06:30;;;;;;;;;6.25;3.00;;;;;;;;5083225;27;61735;-77
2022/11/11 03:08:56;;;;;;;;;4.75;4.75;;;;;;;;5083826;28;61743;-77
2022/11/11 03:11:27;;;;;;;;;10.25;5.00;;;;;;;;5065572;28;61764;-77
2022/11/11 03:13:56;;;;;;;;;8.50;7.25;;;;;;;;5082833;27;61740;-77
2022/11/11 03:19:05;;;;;;;;;10.25;6.00;;;;;;;;5082797;27;62067;-77
2022/11/11 03:21:31;;;;;;;;;8.00;5.00;;;;;;;;5083618;27;62160;-77
2022/11/11 03:23:56;;;;;;;;;11.75;7.50;;;;;;;;5082941;28;61665;-77
2022/11/11 03:26:21;;;;;;;;;7.25;6.75;;;;;;;;5065027;28;61744;-77
2022/11/11 03:28:46;;;;;;;;;6.50;6.50;;;;;;;;5082818;28;62086;-77
2022/11/11 03:31:12;;;;;;;;;11.00;4.00;;;;;;;;5083790;28;62011;-77
2022/11/11 03:33:37;;;;;;;;;9.00;4.75;;;;;;;;5063956;28;62691;-77
2022/11/11 03:36:02;;;;;;;;;11.75;6.00;;;;;;;;5083537;28;61816;-77
2022/11/11 03:38:27;;;;;;;;;6.00;5.50;;;;;;;;5083256;27;61826;-77
2022/11/11 03:40:55;;;;;;;;;9.25;7.00;;;;;;;;5064816;28;62092;-77
2022/11/11 03:43:21;;;;;;;;;10.25;5.50;;;;;;;;5082250;27;62649;-77
2022/11/11 03:45:47;;;;;;;;;12.50;7.75;;;;;;;;5064861;28;62048;-77
2022/11/11 03:48:12;;;;;;;;;8.75;5.00;;;;;;;;5064507;28;62055;-77
2022/11/11 03:50:38;;;;;;;;;10.50;8.75;;;;;;;;5082665;27;62049;-77
2022/11/11 03:53:03;;;;;;;;;9.75;7.25;;;;;;;;5082470;28;62921;-77
2022/11/11 03:55:29;;;;;;;;;8.00;6.00;;;;;;;;5064084;27;62020;-77
2022/11/11 03:57:54;;;;;;;;;10.50;8.00;;;;;;;;5081704;28;61823;-77
2022/11/11 04:00:21;;;;;;;;;11.50;5.50;;;;;;;;5083091;27;62125;-77
2022/11/11 04:11:02;;;;;;;;;9.25;5.00;;;;;;;;5083074;28;61682;-77
2022/11/11 04:16:12;;;;;;;;;7.00;6.00;;;;;;;;5082721;28;62107;-77
2022/11/11 04:26:52;;;;;;;;;8.00;5.50;;;;;;;;5082237;27;62015;-77
2022/11/11 04:29:30;;;;;;;;;6.50;6.00;;;;;;;;5063975;28;61995;-77
2022/11/11 04:34:41;;;;;;;;;7.50;5.00;;;;;;;;5081731;28;61847;-77
2022/11/11 04:37:06;;;;;;;;;8.25;5.75;;;;;;;;5082149;28;61864;-77
2022/11/11 04:42:15;;;;;;;;;8.00;6.50;;;;;;;;5082537;28;61780;-77
2022/11/11 04:47:24;;;;;;;;;10.25;7.75;;;;;;;;5082010;27;61891;-77
2022/11/11 04:49:50;;;;;;;;;8.75;5.25;;;;;;;;5081226;27;61790;-77
2022/11/11 04:52:30;;;;;;;;;5.00;4.25;;;;;;;;5082410;28;61685;-77
2022/11/11 04:57:44;;;;;;;;;5.50;5.00;;;;;;;;5102801;27;61865;-77
2022/11/11 05:00:11;;;;;;;;;7.50;6.50;;;;;;;;5082929;27;61851;-77
2022/11/11 05:05:21;;;;;;;;;9.50;7.75;;;;;;;;5101854;27;62897;-77
2022/11/11 05:10:30;;;;;;;;;10.00;5.25;;;;;;;;5106335;27;61755;-77
2022/11/11 05:21:19;;;;;;;;;8.75;5.50;;;;;;;;5105960;27;62104;-77
2022/11/11 05:21:21;;;;;;;;;10.75;6.75;;;;;;;;5105832;27;62131;-77
2022/11/11 05:26:31;;;;;;;;;10.25;7.75;;;;;;;;5104859;27;61920;-77
2022/11/11 05:28:56;;;;;;;;;7.25;7.25;;;;;;;;5105259;27;61804;-77
2022/11/11 05:31:22;;;;;;;;;9.50;6.25;;;;;;;;5106044;27;61806;-77
2022/11/11 05:33:47;;;;;;;;;10.00;8.00;;;;;;;;5087378;27;62152;-77
2022/11/11 05:36:12;;;;;;;;;8.25;5.00;;;;;;;;5086646;27;64379;-77
2022/11/11 05:38:38;;;;;;;;;7.25;6.00;;;;;;;;5105233;27;61978;-77
2022/11/11 05:41:03;;;;;;;;;9.75;6.75;;;;;;;;5086800;27;61894;-77
2022/11/11 05:43:28;;;;;;;;;11.75;7.00;;;;;;;;5086541;27;61815;-77
2022/11/11 05:45:53;;;;;;;;;9.50;3.75;;;;;;;;5104703;27;63012;-77
2022/11/11 05:48:19;;;;;;;;;10.00;4.75;;;;;;;;5105089;27;61840;-77
2022/11/11 05:50:44;;;;;;;;;9.25;7.25;;;;;;;;5105030;27;61817;-77
2022/11/11 05:53:13;;;;;;;;;6.25;4.00;;;;;;;;5105144;27;61701;-77
2022/11/11 05:55:39;;;;;;;;;5.50;5.50;;;;;;;;5104818;27;61682;-77
2022/11/11 05:58:06;;;;;;;;;7.75;5.50;;;;;;;;5104455;27;61892;-77
2022/11/11 06:00:31;;;;;;;;;11.25;5.00;;;;;;;;5104587;27;61758;-77
2022/11/11 06:03:04;;;;;;;;;7.75;7.00;;;;;;;;5087039;27;62254;-77
2022/11/11 06:05:30;;;;;;;;;6.75;6.50;;;;;;;;5104592;27;62776;-77
2022/11/11 06:07:55;;;;;;;;;9.00;7.00;;;;;;;;5086440;27;61957;-77
2022/11/11 06:10:29;;;;;;;;;5.75;5.00;;;;;;;;5105107;27;62074;-77
2022/11/11 06:13:03;;;;;;;;;7.75;7.00;;;;;;;;5104905;27;61771;-78
2022/11/11 06:15:28;;;;;;;;;6.00;5.50;;;;;;;;5104241;27;61772;-78
2022/11/11 06:17:54;;;;;;;;;6.50;5.25;;;;;;;;5104902;27;61967;-78
2022/11/11 06:20:19;;;;;;;;;11.50;6.50;;;;;;;;5103252;27;61826;-77
2022/11/11 06:22:56;;;;;;;;;9.75;6.00;;;;;;;;5105068;27;61767;-77
2022/11/11 06:28:06;;;;;;;;;9.50;7.50;;;;;;;;5104054;27;61799;-77
2022/11/11 06:30:32;;;;;;;;;8.50;6.50;;;;;;;;5086024;27;61883;-77
2022/11/11 06:32:57;;;;;;;;;5.25;3.50;;;;;;;;5086708;27;61832;-77
2022/11/11 06:35:22;;;;;;;;;8.50;7.00;;;;;;;;5085401;27;63059;-77
2022/11/11 06:37:47;;;;;;;;;10.50;7.75;;;;;;;;5104547;27;61870;-77
2022/11/11 06:40:13;;;;;;;;;9.75;5.00;;;;;;;;5104703;27;62059;-77
2022/11/11 06:42:38;;;;;;;;;10.25;5.00;;;;;;;;5104079;27;61773;-77
2022/11/11 06:45:04;;;;;;;;;6.00;6.00;;;;;;;;5085309;27;63309;-77
2022/11/11 06:47:29;;;;;;;;;8.75;5.25;;;;;;;;5085923;27;62610;-77
2022/11/11 06:49:55;;;;;;;;;7.50;7.00;;;;;;;;5103980;27;61965;-77
2022/11/11 06:52:20;;;;;;;;;6.25;5.00;;;;;;;;5104394;27;61771;-77
2022/11/11 06:54:45;;;;;;;;;8.50;6.75;;;;;;;;5103798;27;61904;-77
2022/11/11 06:57:10;;;;;;;;;7.75;4.25;;;;;;;;5085227;27;62088;-77
2022/11/11 06:59:35;;;;;;;;;7.25;4.50;;;;;;;;5085313;27;62073;-77
2022/11/11 07:02:01;;;;;;;;;7.50;3.00;;;;;;;;5086022;27;61825;-76
2022/11/11 07:04:26;;;;;;;;;7.25;5.00;;;;;;;;5084739;27;62015;-79
2022/11/11 07:06:51;;;;;;;;;10.50;5.00;;;;;;;;5104322;27;62015;-79
2022/11/11 07:09:16;;;;;;;;;5.00;4.25;;;;;;;;5086000;27;62415;-79
2022/11/11 07:11:42;;;;;;;;;8.00;4.25;;;;;;;;5103092;27;61926;-79
2022/11/11 07:14:07;;;;;;;;;8.25;4.00;;;;;;;;5102806;27;62669;-82
2022/11/11 07:16:32;;;;;;;;;4.00;4.00;;;;;;;;5085315;27;61874;-80
2022/11/11 07:18:57;;;;;;;;;7.00;5.00;;;;;;;;5085134;27;61801;-79
2022/11/11 07:21:23;;;;;;;;;4.00;3.00;;;;;;;;5104160;27;61779;-80
2022/11/11 07:23:48;;;;;;;;;10.00;4.50;;;;;;;;5103079;27;62669;-79
2022/11/11 07:26:13;;;;;;;;;3.25;2.25;;;;;;;;5103679;27;61885;-79
2022/11/11 07:28:38;;;;;;;;;6.25;4.50;;;;;;;;5103368;27;61823;-79
2022/11/11 07:31:04;;;;;;;;;5.00;5.00;;;;;;;;5085302;27;61970;-80
2022/11/11 07:33:29;;;;;;;;;3.75;3.75;;;;;;;;5084921;27;63389;-80
2022/11/11 07:35:54;;;;;;;;;6.75;4.00;;;;;;;;5084261;27;62001;-77
2022/11/11 07:38:20;;;;;;;;;4.25;4.25;;;;;;;;5103602;27;61925;-77
2022/11/11 07:40:45;;;;;;;;;4.25;4.25;;;;;;;;5103263;27;61754;-76
2022/11/11 07:43:10;;;;;;;;;5.00;5.00;;;;;;;;5084260;27;61764;-76
2022/11/11 07:45:35;;;;;;;;;4.00;4.00;;;;;;;;5085001;27;61954;-78
2022/11/11 07:48:01;;;;;;;;;7.75;5.75;;;;;;;;5103548;27;62124;-78
2022/11/11 07:50:26;;;;;;;;;5.25;3.50;;;;;;;;5103231;27;61839;-77
2022/11/11 07:52:51;;;;;;;;;5.25;5.25;;;;;;;;5102953;27;61719;-77
2022/11/11 07:55:16;;;;;;;;;4.50;3.00;;;;;;;;5084502;27;61745;-78
2022/11/11 07:57:42;;;;;;;;;5.25;4.00;;;;;;;;5084997;27;61651;-78
2022/11/11 08:00:07;;;;;;;;;6.50;3.00;;;;;;;;5084634;27;61722;-78
2022/11/11 08:02:33;;;;;;;;;6.50;4.00;;;;;;;;5084346;27;63142;-78
2022/11/11 08:04:58;;;;;;;;;5.50;3.00;;;;;;;;5084131;27;61786;-76
2022/11/11 08:07:23;;;;;;;;;6.50;3.75;;;;;;;;5102994;27;61810;-77
2022/11/11 08:09:49;;;;;;;;;9.00;7.75;;;;;;;;5102825;27;62100;-77
2022/11/11 08:14:58;;;;;;;;;8.50;5.50;;;;;;;;5102919;27;61913;-77
2022/11/11 08:17:23;;;;;;;;;6.75;3.75;;;;;;;;5103098;27;61767;-77
2022/11/11 08:19:49;;;;;;;;;7.00;6.00;;;;;;;;5102499;27;61772;-77
2022/11/11 08:22:16;;;;;;;;;9.00;8.00;;;;;;;;5102379;27;61810;-77
2022/11/11 08:24:43;;;;;;;;;6.00;5.00;;;;;;;;5102756;27;61926;-77
2022/11/11 08:27:08;;;;;;;;;9.00;5.00;;;;;;;;5102950;27;61695;-77
2022/11/11 08:29:34;;;;;;;;;6.50;4.50;;;;;;;;5102839;27;61718;-78
2022/11/11 08:31:59;;;;;;;;;7.50;5.50;;;;;;;;5103330;27;62857;-78
2022/11/11 08:34:24;;;;;;;;;4.00;4.00;;;;;;;;5102944;27;61690;-81
2022/11/11 08:36:49;;;;;;;;;8.00;8.00;;;;;;;;5084381;27;61755;-77
2022/11/11 08:39:15;;;;;;;;;7.50;6.75;;;;;;;;5083408;27;61775;-78
2022/11/11 08:41:40;;;;;;;;;10.50;8.00;;;;;;;;5082749;27;63413;-77
2022/11/11 08:44:05;;;;;;;;;8.75;6.00;;;;;;;;5085890;27;61946;-76
2022/11/11 08:46:31;;;;;;;;;4.25;4.25;;;;;;;;5105880;27;61751;-77
2022/11/11 08:48:56;;;;;;;;;8.25;6.00;;;;;;;;5087007;27;62128;-76
2022/11/11 08:51:21;;;;;;;;;10.25;7.50;;;;;;;;5086100;27;61848;-79
2022/11/11 08:53:46;;;;;;;;;8.50;7.00;;;;;;;;5086554;27;62243;-78
2022/11/11 08:56:12;;;;;;;;;6.75;6.25;;;;;;;;5085372;27;62365;-78
2022/11/11 08:58:37;;;;;;;;;11.25;11.25;;;;;;;;5104949;27;62042;-78
2022/11/11 09:01:03;;;;;;;;;9.00;7.25;;;;;;;;5086650;27;63488;-79
2022/11/11 09:03:29;;;;;;;;;10.75;7.25;;;;;;;;5085864;27;61985;-83
2022/11/11 09:05:54;;;;;;;;;9.25;6.50;;;;;;;;5077536;27;61996;-78
2022/11/11 09:08:19;;;;;;;;;8.25;7.00;;;;;;;;5098556;27;61787;-79
2022/11/11 09:10:45;;;;;;;;;6.50;6.50;;;;;;;;5084311;27;63181;-79
2022/11/11 09:13:10;;;;;;;;;6.50;6.50;;;;;;;;5101483;27;61820;-79
2022/11/11 09:15:36;;;;;;;;;7.00;6.00;;;;;;;;5102802;27;61790;-79
2022/11/11 09:18:02;;;;;;;;;8.00;7.00;;;;;;;;5085621;27;61833;-79
2022/11/11 09:20:27;;;;;;;;;5.75;3.75;;;;;;;;5085776;27;63514;-79
2022/11/11 09:22:53;;;;;;;;;7.25;5.00;;;;;;;;5086410;27;61960;-79
2022/11/11 09:25:19;;;;;;;;;10.00;7.50;;;;;;;;5105894;27;62352;-79
2022/11/11 09:27:52;;;;;;;;;10.75;6.25;;;;;;;;5087381;27;62191;-79
2022/11/11 09:30:17;;;;;;;;;11.75;10.00;;;;;;;;5086460;27;63413;-79
2022/11/11 09:32:42;;;;;;;;;12.00;8.00;;;;;;;;5105767;27;61690;-79
2022/11/11 09:35:08;;;;;;;;;8.25;7.50;;;;;;;;5087254;27;61732;-79
2022/11/11 09:37:33;;;;;;;;;6.50;6.50;;;;;;;;5105452;27;61696;-79
2022/11/11 09:39:58;;;;;;;;;8.75;8.00;;;;;;;;5105058;27;61866;-79
2022/11/11 09:42:24;;;;;;;;;8.25;8.25;;;;;;;;5086798;27;61993;-79
2022/11/11 09:45:05;;;;;;;;;12.75;9.75;;;;;;;;5086883;27;61966;-79
2022/11/11 09:47:30;;;;;;;;;11.75;10.00;;;;;;;;5105396;27;61836;-79
2022/11/11 09:50:16;;;;;;;;;15.00;11.00;;;;;;;;5084508;27;62053;-79
2022/11/11 09:52:54;;;;;;;;;11.50;8.00;;;;;;;;5087049;27;61848;-79
2022/11/11 09:55:26;;;;;;;;;10.50;7.00;;;;;;;;5086728;27;62178;-79
2022/11/11 09:57:57;;;;;;;;;8.75;8.00;;;;;;;;5086999;27;62150;-79
2022/11/11 10:00:28;;;;;;;;;7.00;4.50;;;;;;;;5104090;27;62152;-79
2022/11/11 10:03:08;;;;;;;;;8.00;4.50;;;;;;;;5105524;27;61901;-79
2022/11/11 10:05:36;;;;;;;;;5.75;4.75;;;;;;;;5104934;27;61944;-79
2022/11/11 10:08:11;;;;;;;;;4.25;4.00;;;;;;;;5086931;27;61820;-79
2022/11/11 10:10:47;;;;;;;;;5.25;4.75;;;;;;;;5104475;27;63012;-79
2022/11/11 10:13:26;;;;;;;;;6.00;4.75;;;;;;;;5086133;27;61836;-79
2022/11/11 10:15:51;;;;;;;;;7.00;5.00;;;;;;;;5086880;27;62019;-79
2022/11/11 10:18:28;;;;;;;;;4.75;4.75;;;;;;;;5105284;27;61725;-79
2022/11/11 10:20:54;;;;;;;;;4.75;4.75;;;;;;;;5085610;27;61968;-79
2022/11/11 10:23:25;;;;;;;;;11.00;6.75;;;;;;;;5086213;27;61909;-79
2022/11/11 10:25:52;;;;;;;;;8.50;6.25;;;;;;;;5105126;27;62020;-79
2022/11/11 10:28:19;;;;;;;;;11.75;7.00;;;;;;;;5086376;27;61838;-80
2022/11/11 10:30:45;;;;;;;;;5.75;5.75;;;;;;;;5104482;27;61911;-79
2022/11/11 10:33:13;;;;;;;;;7.00;7.00;;;;;;;;5105166;27;62062;-79
2022/11/11 10:35:39;;;;;;;;;9.25;7.25;;;;;;;;5085944;27;61786;-79
2022/11/11 10:38:16;;;;;;;;;9.00;6.25;;;;;;;;5086526;27;62089;-79
2022/11/11 10:40:45;;;;;;;;;7.50;5.50;;;;;;;;5085693;27;62853;-79
2022/11/11 10:43:19;;;;;;;;;10.75;8.00;;;;;;;;5104685;27;61830;-79
2022/11/11 10:46:01;;;;;;;;;11.75;3.25;;;;;;;;5104710;27;61814;-79
2022/11/11 10:48:39;;;;;;;;;8.25;7.50;;;;;;;;5085397;27;61819;-79
2022/11/11 10:51:05;;;;;;;;;7.00;6.25;;;;;;;;5104192;27;61819;-79
2022/11/11 10:53:33;;;;;;;;;11.25;8.75;;;;;;;;5104453;27;61820;-79
2022/11/11 10:56:02;;;;;;;;;9.25;7.75;;;;;;;;5089640;27;61887;-79
2022/11/11 10:58:41;;;;;;;;;10.00;6.75;;;;;;;;5083537;27;61844;-79
2022/11/11 11:01:09;;;;;;;;;9.50;8.00;;;;;;;;5064997;27;63561;-79
2022/11/11 11:03:48;;;;;;;;;4.25;4.25;;;;;;;;5083468;27;61813;-79
2022/11/11 11:06:18;;;;;;;;;9.75;6.75;;;;;;;;5083624;28;61914;-79
2022/11/11 11:08:48;;;;;;;;;9.75;8.00;;;;;;;;5065336;28;61718;-79
2022/11/11 11:11:22;;;;;;;;;9.75;8.75;;;;;;;;5083351;28;61870;-79
2022/11/11 11:13:50;;;;;;;;;7.25;6.50;;;;;;;;5083187;28;61850;-79
2022/11/11 11:16:29;;;;;;;;;8.50;7.25;;;;;;;;5065410;28;61916;-79
2022/11/11 11:19:13;;;;;;;;;10.75;7.00;;;;;;;;5083016;27;61943;-79
2022/11/11 11:21:51;;;;;;;;;11.50;8.25;;;;;;;;5064683;28;62905;-79
2022/11/11 11:24:27;;;;;;;;;4.75;3.00;;;;;;;;5065411;28;61930;-79
2022/11/11 11:26:57;;;;;;;;;7.00;7.00;;;;;;;;5083913;28;61871;-79
2022/11/11 11:29:27;;;;;;;;;7.25;7.25;;;;;;;;5064558;28;61975;-79
2022/11/11 11:31:52;;;;;;;;;9.75;5.25;;;;;;;;5064050;28;61880;-79
2022/11/11 11:34:18;;;;;;;;;12.00;9.00;;;;;;;;5083562;27;61942;-79
2022/11/11 11:36:43;;;;;;;;;6.75;5.00;;;;;;;;5082994;27;61736;-79
2022/11/11 11:39:08;;;;;;;;;10.00;9.00;;;;;;;;5065283;28;61862;-79
2022/11/11 11:41:49;;;;;;;;;9.50;6.50;;;;;;;;5082734;27;62783;-79
2022/11/11 11:44:30;;;;;;;;;14.00;7.00;;;;;;;;5083197;28;61953;-79
2022/11/11 11:47:08;;;;;;;;;9.00;7.75;;;;;;;;5064610;28;61822;-80
2022/11/11 11:49:34;;;;;;;;;6.75;5.75;;;;;;;;5064584;28;61768;-80
2022/11/11 11:52:02;;;;;;;;;9.50;9.00;;;;;;;;5064304;28;61831;-80
2022/11/11 11:54:40;;;;;;;;;9.50;9.25;;;;;;;;5066661;27;62028;-80
2022/11/11 11:57:19;;;;;;;;;9.75;7.00;;;;;;;;5084821;27;61756;-79
2022/11/11 11:59:55;;;;;;;;;8.50;8.50;;;;;;;;5081179;27;61803;-79
2022/11/11 12:02:20;;;;;;;;;8.50;7.00;;;;;;;;5082292;28;62686;-79
2022/11/11 12:04:52;;;;;;;;;9.25;9.25;;;;;;;;5082746;28;61805;-79
2022/11/11 12:07:20;;;;;;;;;8.00;7.00;;;;;;;;5082955;27;61808;-79
2022/11/11 12:10:04;;;;;;;;;8.75;8.75;;;;;;;;5082596;28;61780;-79
2022/11/11 12:12:38;;;;;;;;;10.00;8.50;;;;;;;;5080901;28;63834;-79
2022/11/11 12:15:10;;;;;;;;;8.75;8.75;;;;;;;;5080682;28;61883;-80
2022/11/11 12:17:35;;;;;;;;;8.50;7.50;;;;;;;;5081694;28;61753;-80
2022/11/11 12:20:06;;;;;;;;;8.50;7.25;;;;;;;;5082560;27;61882;-79
2022/11/11 12:22:40;;;;;;;;;7.25;5.00;;;;;;;;5080435;28;61954;-80
2022/11/11 12:25:15;;;;;;;;;7.25;6.50;;;;;;;;5082647;28;61722;-80
2022/11/11 12:27:55;;;;;;;;;7.00;6.00;;;;;;;;5082197;28;61859;-81
2022/11/11 12:30:27;;;;;;;;;7.50;7.25;;;;;;;;5081099;28;61875;-80
2022/11/11 12:32:59;;;;;;;;;8.25;8.25;;;;;;;;5076935;28;62357;-81
2022/11/11 12:35:32;;;;;;;;;7.50;7.50;;;;;;;;5079945;27;61724;-81
2022/11/11 12:38:04;;;;;;;;;10.25;7.75;;;;;;;;5077811;28;61783;-80
2022/11/11 12:40:45;;;;;;;;;13.00;11.25;;;;;;;;5079920;28;61930;-76
2022/11/11 12:43:27;;;;;;;;;9.25;9.25;;;;;;;;5076605;28;62655;-78
2022/11/11 12:45:57;;;;;;;;;9.25;9.25;;;;;;;;5076939;27;62167;-81
2022/11/11 12:48:25;;;;;;;;;10.50;9.50;;;;;;;;5079003;27;62837;-80
2022/11/11 12:51:10;;;;;;;;;16.00;12.50;;;;;;;;5081059;28;61770;-82
2022/11/11 12:53:50;;;;;;;;;9.75;9.50;;;;;;;;5079874;28;62236;-80
2022/11/11 12:56:31;;;;;;;;;8.00;7.25;;;;;;;;5079105;28;62000;-80
2022/11/11 12:59:03;;;;;;;;;11.00;9.00;;;;;;;;5080143;27;62250;-80
2022/11/11 13:01:50;;;;;;;;;12.25;10.75;;;;;;;;5102308;27;61926;-80
2022/11/11 13:04:15;;;;;;;;;10.75;10.00;;;;;;;;5082840;27;64048;-82
2022/11/11 13:06:54;;;;;;;;;10.75;9.00;;;;;;;;5102019;27;61820;-81
2022/11/11 13:09:20;;;;;;;;;12.00;8.00;;;;;;;;5081418;27;61888;-82
2022/11/11 13:11:48;;;;;;;;;11.75;9.00;;;;;;;;5102407;27;61832;-79
2022/11/11 13:14:19;;;;;;;;;10.75;8.25;;;;;;;;5099789;27;62010;-81
2022/11/11 13:16:44;;;;;;;;;13.00;9.00;;;;;;;;5101459;27;61977;-81
2022/11/11 13:19:09;;;;;;;;;12.00;9.00;;;;;;;;5100834;27;61752;-81
2022/11/11 13:21:41;;;;;;;;;9.33;7.33;;;;;;;;5081056;27;61827;-82
2022/11/11 13:24:09;;;;;;;;;10.00;8.67;;;;;;;;5079450;27;63666;-82
2022/11/11 13:26:38;;;;;;;;;7.67;6.67;;;;;;;;5099357;27;61906;-83
2022/11/11 13:29:22;;;;;;;;;8.00;7.33;;;;;;;;5099151;27;61791;-77
2022/11/11 13:31:48;;;;;;;;;10.00;7.00;;;;;;;;5104338;27;61861;-80
2022/11/11 13:34:14;;;;;;;;;11.00;8.00;;;;;;;;5103776;27;61791;-79
2022/11/11 13:36:42;;;;;;;;;8.67;7.67;;;;;;;;5103484;27;62026;-78
2022/11/11 13:39:20;;;;;;;;;8.33;7.33;;;;;;;;5103751;27;61998;-82
2022/11/11 13:41:49;;;;;;;;;10.00;8.33;;;;;;;;5084621;27;62009;-83
2022/11/11 13:44:22;;;;;;;;;8.00;6.67;;;;;;;;5106965;27;62845;-81
2022/11/11 13:46:47;;;;;;;;;8.00;7.33;;;;;;;;5103124;27;61745;-81
2022/11/11 13:49:22;;;;;;;;;7.67;7.67;;;;;;;;5083034;27;61949;-81
2022/11/11 13:51:56;;;;;;;;;9.33;9.33;;;;;;;;5103182;27;62023;-81
2022/11/11 13:54:25;;;;;;;;;9.00;8.00;;;;;;;;5101051;27;61916;-82
2022/11/11 13:56:51;;;;;;;;;7.67;6.67;;;;;;;;5084175;27;61716;-82
2022/11/11 13:59:22;;;;;;;;;8.33;7.00;;;;;;;;5085544;27;62116;-82
2022/11/11 14:02:07;;;;;;;;;11.25;9.00;;;;;;;;5085642;27;62368;-82
2022/11/11 14:04:52;;;;;;;;;11.00;8.75;;;;;;;;5084114;27;63792;-80
2022/11/11 14:07:41;;;;;;;;;9.00;7.75;;;;;;;;5101759;27;61809;-81
2022/11/11 14:10:06;;;;;;;;;8.25;6.75;;;;;;;;5073094;27;61885;-80
2022/11/11 14:12:35;;;;;;;;;9.50;7.00;;;;;;;;5085718;27;61958;-82
2022/11/11 14:15:00;;;;;;;;;7.25;6.00;;;;;;;;5085071;27;62824;-81
2022/11/11 14:17:28;;;;;;;;;15.00;8.75;;;;;;;;5103927;27;61875;-82
2022/11/11 14:19:53;;;;;;;;;7.00;6.75;;;;;;;;5103919;27;61807;-80
2022/11/11 14:22:32;;;;;;;;;10.75;8.50;;;;;;;;5085554;27;61878;-82
2022/11/11 14:25:16;;;;;;;;;10.25;8.25;;;;;;;;5083869;27;62165;-85
2022/11/11 14:27:46;;;;;;;;;10.25;7.50;;;;;;;;5102738;27;61831;-84
2022/11/11 14:30:26;;;;;;;;;10.75;7.25;;;;;;;;5086319;27;61827;-81
2022/11/11 14:32:51;;;;;;;;;10.50;7.75;;;;;;;;5105042;27;61871;-79
2022/11/11 14:35:22;;;;;;;;;10.00;9.50;;;;;;;;5104311;27;61783;-78
2022/11/11 14:37:54;;;;;;;;;10.25;9.00;;;;;;;;5104964;27;62031;-78
2022/11/11 14:40:24;;;;;;;;;7.50;6.00;;;;;;;;5103093;27;61764;-78
2022/11/11 14:42:49;;;;;;;;;9.75;6.25;;;;;;;;5104913;27;61903;-78
2022/11/11 14:45:33;;;;;;;;;6.00;6.00;;;;;;;;5101835;27;62701;-78
2022/11/11 14:48:00;;;;;;;;;7.75;7.75;;;;;;;;5084617;27;61866;-78
2022/11/11 14:50:31;;;;;;;;;9.25;9.25;;;;;;;;5102521;27;61872;-78
2022/11/11 14:53:16;;;;;;;;;8.75;8.00;;;;;;;;5103628;27;61873;-78
2022/11/11 14:55:41;;;;;;;;;8.25;7.00;;;;;;;;5081541;27;62165;-78
2022/11/11 14:58:06;;;;;;;;;9.50;8.00;;;;;;;;5102919;27;61994;-78
2022/11/11 15:00:41;;;;;;;;;7.75;7.75;;;;;;;;5083876;27;62021;-78
2022/11/11 15:03:09;;;;;;;;;9.00;6.75;;;;;;;;5103869;27;61854;-78
2022/11/11 15:05:46;;;;;;;;;13.00;8.25;;;;;;;;5085378;27;61820;-78
2022/11/11 15:08:23;;;;;;;;;9.75;8.75;;;;;;;;5103849;27;61861;-79
2022/11/11 15:11:00;;;;;;;;;11.75;8.00;;;;;;;;5085318;27;61907;-78
2022/11/11 15:13:25;;;;;;;;;10.00;7.25;;;;;;;;5109688;27;62434;-78
2022/11/11 15:15:59;;;;;;;;;9.75;6.50;;;;;;;;5102040;27;61982;-78
2022/11/11 15:18:34;;;;;;;;;7.00;6.00;;;;;;;;5101968;27;61894;-78
2022/11/11 15:21:25;;;;;;;;;9.50;8.50;;;;;;;;5102733;27;62075;-78
2022/11/11 15:23:57;;;;;;;;;8.50;7.75;;;;;;;;5095738;27;61697;-78
2022/11/11 15:26:41;;;;;;;;;11.25;10.50;;;;;;;;5101862;27;62764;-78
2022/11/11 15:29:06;;;;;;;;;10.00;10.00;;;;;;;;5101261;27;61698;-78
2022/11/11 15:31:31;;;;;;;;;18.50;11.50;;;;;;;;5084212;27;61742;-78
2022/11/11 15:33:57;;;;;;;;;13.25;11.50;;;;;;;;5084148;27;61807;-78
2022/11/11 15:36:25;;;;;;;;;7.25;6.00;;;;;;;;5114705;27;62898;-79
2022/11/11 15:38:50;;;;;;;;;14.00;10.00;;;;;;;;5123899;27;62181;-79
2022/11/11 15:41:28;;;;;;;;;13.50;9.25;;;;;;;;5116249;27;62015;-79
2022/11/11 15:43:53;;;;;;;;;17.25;12.25;;;;;;;;5106347;27;62672;-80
2022/11/11 15:46:25;;;;;;;;;12.50;10.50;;;;;;;;5109919;27;61970;-79
2022/11/11 15:48:51;;;;;;;;;10.75;9.75;;;;;;;;5084800;27;61957;-80
2022/11/11 15:51:25;;;;;;;;;13.75;9.00;;;;;;;;5081391;27;62363;-79
2022/11/11 15:53:50;;;;;;;;;6.00;6.00;;;;;;;;5102296;27;61950;-80
2022/11/11 15:56:29;;;;;;;;;11.25;9.00;;;;;;;;5083786;27;63264;-80
2022/11/11 15:58:55;;;;;;;;;12.50;11.00;;;;;;;;5098414;27;61921;-79
2022/11/11 16:01:23;;;;;;;;;14.00;11.00;;;;;;;;5082967;27;61856;-79
2022/11/11 16:03:49;;;;;;;;;11.75;9.75;;;;;;;;5101545;27;61942;-79
2022/11/11 16:06:15;;;;;;;;;10.75;8.00;;;;;;;;5083176;27;61989;-79